createdAt,value
2022-09-15T00:00:21.066Z,3.30
2022-09-15T00:02:48.770Z,5.63
2022-09-15T00:05:16.588Z,7.25
2022-09-15T00:07:44.261Z,5.13
2022-09-15T00:10:13.634Z,4.93
2022-09-15T00:12:41.487Z,1.88
2022-09-15T00:15:10.217Z,4.53
2022-09-15T00:17:37.921Z,3.08
2022-09-15T00:20:07.428Z,4.53
2022-09-15T00:22:35.169Z,7.70
2022-09-15T00:25:02.830Z,2.42
2022-09-15T00:27:32.440Z,8.43
2022-09-15T00:30:00.157Z,2.58
2022-09-15T00:32:28.502Z,4.97
2022-09-15T00:34:56.188Z,2.40
2022-09-15T00:37:23.888Z,1.88
2022-09-15T00:39:51.922Z,4.45
2022-09-15T00:42:21.991Z,4.25
2022-09-15T00:44:54.975Z,5.47
2022-09-15T00:47:25.826Z,4.60
2022-09-15T00:49:59.312Z,3.47
2022-09-15T00:52:31.565Z,7.22
2022-09-15T00:55:03.105Z,1.88
2022-09-15T00:57:35.015Z,3.72
2022-09-15T01:00:10.563Z,4.80
2022-09-15T01:02:39.351Z,3.30
2022-09-15T01:05:11.091Z,2.53
2022-09-15T01:07:43.603Z,4.43
2022-09-15T01:10:15.809Z,6.63
2022-09-15T01:12:43.972Z,3.00
2022-09-15T01:15:13.664Z,3.28
2022-09-15T01:17:53.971Z,5.45
2022-09-15T01:20:46.249Z,3.60
2022-09-15T01:23:39.143Z,4.63
2022-09-15T01:26:34.709Z,4.20
2022-09-15T01:29:25.514Z,4.43
2022-09-15T01:32:16.423Z,2.63
2022-09-15T01:34:49.885Z,3.65
2022-09-15T01:37:26.926Z,2.58
2022-09-15T01:39:57.601Z,3.33
2022-09-15T01:42:26.517Z,5.75
2022-09-15T01:45:00.377Z,2.90
2022-09-15T01:47:30.531Z,3.05
2022-09-15T01:50:04.301Z,4.43
2022-09-15T01:52:33.389Z,5.22
2022-09-15T01:55:08.802Z,4.85
2022-09-15T01:57:36.510Z,3.42
2022-09-15T02:00:06.530Z,1.65
2022-09-15T02:02:39.249Z,2.33
2022-09-15T02:05:14.360Z,4.07
2022-09-15T02:07:50.401Z,6.55
2022-09-15T02:10:25.838Z,5.07
2022-09-15T02:13:00.913Z,4.63
2022-09-15T02:15:33.394Z,4.78
2022-09-15T02:18:04.467Z,2.97
2022-09-15T02:20:39.573Z,3.70
2022-09-15T02:23:12.758Z,7.07
2022-09-15T02:25:45.061Z,4.35
2022-09-15T02:28:16.298Z,1.92
2022-09-15T02:30:47.765Z,11.37
2022-09-15T02:33:20.532Z,3.17
2022-09-15T02:35:48.801Z,4.25
2022-09-15T02:38:16.574Z,5.18
2022-09-15T02:40:45.664Z,6.65
2022-09-15T02:43:15.227Z,3.00
2022-09-15T02:45:43.730Z,5.10
2022-09-15T02:48:13.028Z,4.00
2022-09-15T02:50:41.205Z,2.80
2022-09-15T02:53:09.039Z,5.38
2022-09-15T02:55:36.804Z,1.98
2022-09-15T02:58:04.566Z,2.33
2022-09-15T03:00:32.647Z,2.67
2022-09-15T03:03:00.367Z,2.92
2022-09-15T03:05:30.925Z,3.42
2022-09-15T03:07:58.905Z,6.35
2022-09-15T03:10:27.374Z,2.03
2022-09-15T03:12:56.095Z,6.95
2022-09-15T03:15:26.340Z,3.70
2022-09-15T03:17:55.255Z,6.75
2022-09-15T03:20:24.526Z,4.75
2022-09-15T03:22:53.638Z,3.60
2022-09-15T03:25:21.936Z,3.25
2022-09-15T03:27:49.645Z,4.03
2022-09-15T03:30:17.328Z,4.10
2022-09-15T03:32:44.998Z,6.03
2022-09-15T03:35:12.757Z,7.05
2022-09-15T03:37:40.519Z,3.05
2022-09-15T03:40:11.207Z,5.80
2022-09-15T03:42:39.112Z,5.05
2022-09-15T03:45:07.711Z,6.35
2022-09-15T03:47:35.378Z,6.03
2022-09-15T03:50:03.064Z,3.95
2022-09-15T03:52:32.408Z,6.68
2022-09-15T03:55:00.483Z,7.85
2022-09-15T03:57:29.538Z,3.50
2022-09-15T03:59:57.220Z,5.05
2022-09-15T04:02:24.952Z,3.55
2022-09-15T04:04:52.686Z,3.67
2022-09-15T04:07:20.912Z,7.43
2022-09-15T04:09:48.623Z,2.83
2022-09-15T04:12:16.354Z,3.70
2022-09-15T04:14:45.671Z,5.45
2022-09-15T04:17:15.438Z,5.40
2022-09-15T04:19:43.154Z,3.13
2022-09-15T04:22:13.238Z,7.57
2022-09-15T04:24:44.775Z,5.40
2022-09-15T04:27:12.475Z,2.58
2022-09-15T04:29:40.179Z,5.13
2022-09-15T04:32:09.766Z,5.95
2022-09-15T04:34:41.360Z,3.92
2022-09-15T04:37:09.499Z,3.38
2022-09-15T04:39:37.443Z,5.15
2022-09-15T04:42:07.727Z,2.47
2022-09-15T04:44:35.554Z,2.67
2022-09-15T04:47:03.376Z,6.43
2022-09-15T04:49:32.693Z,7.60
2022-09-15T04:52:00.680Z,5.38
2022-09-15T04:54:28.344Z,1.55
2022-09-15T04:56:55.997Z,8.82
2022-09-15T04:59:23.670Z,2.67
2022-09-15T05:01:54.897Z,4.75
2022-09-15T05:04:22.871Z,3.07
2022-09-15T05:06:51.951Z,2.60
2022-09-15T05:09:19.650Z,4.22
2022-09-15T05:11:47.451Z,5.18
2022-09-15T05:14:15.131Z,5.40
2022-09-15T05:16:42.885Z,3.90
2022-09-15T05:19:11.599Z,2.58
2022-09-15T05:21:39.797Z,4.65
2022-09-15T05:24:09.009Z,3.00
2022-09-15T05:26:36.699Z,4.07
2022-09-15T05:29:04.488Z,3.55
2022-09-15T05:31:35.010Z,2.95
2022-09-15T05:34:04.691Z,1.63
2022-09-15T05:36:33.265Z,3.30
2022-09-15T05:39:01.715Z,5.15
2022-09-15T05:41:31.188Z,2.40
2022-09-15T05:43:59.739Z,3.83
2022-09-15T05:46:29.039Z,3.15
2022-09-15T05:48:58.191Z,2.45
2022-09-15T05:51:26.342Z,4.55
2022-09-15T05:53:54.051Z,3.40
2022-09-15T05:56:21.730Z,3.25
2022-09-15T05:58:51.053Z,4.15
2022-09-15T06:01:20.480Z,4.43
2022-09-15T06:03:48.639Z,2.45
2022-09-15T06:06:16.618Z,3.58
2022-09-15T06:08:48.361Z,2.95
2022-09-15T06:11:18.048Z,7.18
2022-09-15T06:13:46.533Z,4.15
2022-09-15T06:16:18.326Z,6.88
2022-09-15T06:18:46.727Z,3.08
2022-09-15T06:21:16.144Z,3.50
2022-09-15T06:23:48.612Z,6.07
2022-09-15T06:26:20.175Z,12.40
2022-09-15T06:28:50.670Z,10.48
2022-09-15T06:31:20.610Z,7.45
2022-09-15T06:33:51.173Z,2.83
2022-09-15T06:36:21.266Z,1.70
2022-09-15T06:38:49.666Z,2.95
2022-09-15T06:41:17.662Z,4.07
2022-09-15T06:43:46.668Z,5.97
2022-09-15T06:46:16.575Z,4.80
2022-09-15T06:48:48.328Z,2.55
2022-09-15T06:53:45.207Z,4.50
2022-09-15T06:56:15.387Z,6.43
2022-09-15T06:58:44.594Z,7.22
2022-09-15T07:01:14.305Z,5.55
2022-09-15T07:03:44.844Z,3.42
2022-09-15T07:06:13.119Z,8.90
2022-09-15T07:08:41.786Z,5.97
2022-09-15T07:11:10.098Z,4.50
2022-09-15T07:13:38.375Z,5.68
2022-09-15T07:16:09.154Z,2.25
2022-09-15T07:18:42.295Z,4.47
2022-09-15T07:21:14.504Z,1.88
2022-09-15T07:23:42.880Z,6.35
2022-09-15T07:26:12.880Z,3.95
2022-09-15T07:28:41.976Z,5.13
2022-09-15T07:31:11.727Z,4.32
2022-09-15T07:33:39.453Z,3.13
2022-09-15T07:36:09.392Z,5.28
2022-09-15T07:38:41.794Z,3.60
2022-09-15T07:41:11.816Z,3.70
2022-09-15T07:43:40.054Z,4.68
2022-09-15T07:46:08.394Z,4.18
2022-09-15T07:48:36.143Z,4.38
2022-09-15T07:51:03.876Z,3.20
2022-09-15T07:53:32.119Z,5.47
2022-09-15T07:56:01.163Z,8.18
2022-09-15T07:58:28.890Z,4.38
2022-09-15T08:01:02.721Z,4.72
2022-09-15T08:03:30.679Z,4.53
2022-09-15T08:05:59.502Z,5.47
2022-09-15T08:08:27.317Z,6.20
2022-09-15T08:10:55.212Z,4.63
2022-09-15T08:13:24.462Z,4.55
2022-09-15T08:15:52.548Z,4.90
2022-09-15T08:18:20.372Z,7.80
2022-09-15T08:20:48.069Z,5.03
2022-09-15T08:23:15.808Z,6.70
2022-09-15T08:25:43.449Z,8.73
2022-09-15T08:28:11.352Z,7.68
2022-09-15T08:30:40.395Z,7.50
2022-09-15T08:33:08.068Z,6.65
2022-09-15T08:35:36.858Z,5.05
2022-09-15T08:38:04.566Z,4.13
2022-09-15T08:40:37.065Z,5.65
2022-09-15T08:43:09.938Z,7.75
2022-09-15T08:45:48.544Z,6.35
2022-09-15T08:48:18.216Z,3.70
2022-09-15T08:50:50.419Z,4.18
2022-09-15T08:53:23.273Z,4.63
2022-09-15T08:55:53.559Z,4.05
2022-09-15T08:58:24.080Z,4.50
2022-09-15T09:01:01.625Z,5.90
2022-09-15T09:03:48.239Z,3.22
2022-09-15T09:06:27.540Z,4.80
2022-09-15T09:09:13.624Z,6.43
2022-09-15T09:11:53.635Z,6.35
2022-09-15T09:14:32.443Z,5.65
2022-09-15T09:17:21.650Z,3.55
2022-09-15T09:20:13.486Z,3.20
2022-09-15T09:22:45.098Z,4.25
2022-09-15T09:25:27.069Z,2.42
2022-09-15T09:27:56.613Z,5.53
2022-09-15T09:30:25.348Z,5.47
2022-09-15T09:33:04.941Z,6.15
2022-09-15T09:35:39.687Z,2.53
2022-09-15T09:38:10.707Z,4.03
2022-09-15T09:40:40.093Z,5.82
2022-09-15T09:43:08.456Z,4.85
2022-09-15T09:45:36.299Z,6.03
2022-09-15T09:48:15.373Z,4.65
2022-09-15T09:50:44.233Z,4.78
2022-09-15T09:53:20.253Z,4.18
2022-09-15T09:55:48.016Z,5.18
2022-09-15T09:58:21.368Z,6.28
2022-09-15T10:00:49.661Z,5.65
2022-09-15T10:03:20.122Z,6.80
2022-09-15T10:06:02.933Z,4.10
2022-09-15T10:08:30.880Z,3.50
2022-09-15T10:11:05.015Z,4.25
2022-09-15T10:13:35.126Z,2.58
2022-09-15T10:16:06.386Z,4.88
2022-09-15T10:18:38.257Z,4.65
2022-09-15T10:21:08.373Z,3.58
2022-09-15T10:23:36.611Z,4.72
2022-09-15T10:26:31.997Z,4.07
2022-09-15T10:29:16.016Z,4.97
2022-09-15T10:31:45.249Z,6.68
2022-09-15T10:34:31.452Z,4.57
2022-09-15T10:37:30.973Z,5.95
2022-09-15T10:40:02.073Z,4.20
2022-09-15T10:42:51.499Z,4.70
2022-09-15T10:45:27.675Z,2.92
2022-09-15T10:48:27.464Z,3.22
2022-09-15T10:51:04.917Z,5.28
2022-09-15T10:53:55.546Z,3.00
2022-09-15T10:59:31.032Z,4.70
2022-09-15T11:02:32.004Z,2.83
2022-09-15T11:05:11.787Z,5.95
2022-09-15T11:07:50.918Z,2.28
2022-09-15T11:10:26.902Z,4.25
2022-09-15T11:13:03.280Z,2.63
2022-09-15T11:15:47.476Z,2.67
2022-09-15T11:18:32.604Z,4.97
2022-09-15T11:21:21.426Z,5.53
2022-09-15T11:23:58.466Z,3.33
2022-09-15T11:26:34.053Z,8.48
2022-09-15T11:29:07.243Z,2.92
2022-09-15T11:31:40.261Z,8.23
2022-09-15T11:34:16.354Z,5.65
2022-09-15T11:36:48.350Z,4.93
2022-09-15T11:41:56.483Z,7.13
2022-09-15T11:44:29.406Z,5.00
2022-09-15T11:47:14.771Z,5.82
2022-09-15T11:49:46.718Z,3.78
2022-09-15T11:52:37.479Z,4.30
2022-09-15T11:55:17.986Z,3.25
2022-09-15T11:57:51.749Z,2.63
2022-09-15T12:00:19.617Z,3.03
2022-09-15T12:02:52.804Z,6.57
2022-09-15T12:05:25.464Z,2.55
2022-09-15T12:08:03.536Z,5.03
2022-09-15T12:10:37.737Z,6.53
2022-09-15T12:13:06.844Z,4.35
2022-09-15T12:15:34.713Z,4.43
2022-09-15T12:18:37.343Z,4.43
2022-09-15T12:21:09.234Z,3.92
2022-09-15T12:23:41.988Z,3.72
2022-09-15T12:26:17.380Z,6.18
2022-09-15T12:28:57.930Z,5.40
2022-09-15T12:31:29.699Z,5.45
2022-09-15T12:34:00.186Z,4.75
2022-09-15T12:36:53.346Z,5.45
2022-09-15T12:39:28.610Z,16.15
2022-09-15T12:42:07.277Z,11.25
2022-09-15T12:44:38.041Z,10.35
2022-09-15T12:47:17.553Z,11.05
2022-09-15T12:49:48.306Z,6.70
2022-09-15T12:52:16.986Z,5.03
2022-09-15T12:54:51.871Z,5.10
2022-09-15T12:57:25.614Z,9.27
2022-09-15T13:00:18.042Z,5.35
2022-09-15T13:02:48.469Z,4.32
2022-09-15T13:05:53.655Z,3.55
2022-09-15T13:08:45.642Z,4.60
2022-09-15T13:11:16.741Z,6.75
2022-09-15T13:13:51.973Z,4.57
2022-09-15T13:16:26.806Z,7.60
2022-09-15T13:19:14.993Z,4.03
2022-09-15T13:21:49.347Z,5.78
2022-09-15T13:24:20.507Z,4.25
2022-09-15T13:26:52.883Z,5.20
2022-09-15T13:29:24.294Z,5.57
2022-09-15T13:31:56.283Z,3.13
2022-09-15T13:35:06.547Z,7.50
2022-09-15T13:38:22.100Z,6.97
2022-09-15T13:41:16.382Z,3.30
2022-09-15T13:44:06.611Z,3.22
2022-09-15T13:46:48.076Z,4.30
2022-09-15T13:49:36.666Z,4.60
2022-09-15T13:52:15.247Z,6.40
2022-09-15T13:55:16.659Z,3.10
2022-09-15T14:00:48.981Z,4.07
2022-09-15T14:03:25.678Z,2.83
2022-09-15T14:05:54.545Z,3.70
2022-09-15T14:08:25.634Z,4.88
2022-09-15T14:10:56.267Z,4.57
2022-09-15T14:13:27.144Z,5.25
2022-09-15T14:15:59.593Z,6.05
2022-09-15T14:18:29.736Z,5.75
2022-09-15T14:21:04.848Z,2.92
2022-09-15T14:23:33.169Z,5.32
2022-09-15T14:26:02.968Z,4.72
2022-09-15T14:28:33.290Z,2.72
2022-09-15T14:31:02.718Z,5.88
2022-09-15T14:33:38.032Z,3.40
2022-09-15T14:36:22.484Z,2.55
2022-09-15T14:39:08.979Z,3.40
2022-09-15T14:41:37.490Z,3.97
2022-09-15T14:45:55.375Z,1.63
2022-09-15T14:47:15.168Z,3.13
2022-09-15T14:49:44.879Z,5.50
2022-09-15T14:52:24.247Z,2.90
2022-09-15T14:54:58.505Z,3.40
2022-09-15T14:57:31.242Z,1.67
2022-09-15T15:00:03.360Z,2.60
2022-09-15T15:02:42.041Z,3.55
2022-09-15T15:05:18.824Z,2.10
2022-09-15T15:07:46.928Z,3.45
2022-09-15T15:10:21.006Z,2.13
2022-09-15T15:12:51.970Z,1.90
2022-09-15T15:15:20.622Z,6.28
2022-09-15T15:17:50.788Z,5.10
2022-09-15T15:20:23.054Z,5.05
2022-09-15T15:23:11.928Z,2.90
2022-09-15T15:25:39.812Z,6.47
2022-09-15T15:28:07.738Z,2.13
2022-09-15T15:30:44.954Z,4.55
2022-09-15T15:33:20.957Z,4.53
2022-09-15T15:36:03.082Z,3.60
2022-09-15T15:38:35.274Z,4.20
2022-09-15T15:41:05.346Z,4.90
2022-09-15T15:43:34.280Z,3.83
2022-09-15T15:46:05.251Z,4.40
2022-09-15T15:48:37.870Z,3.22
2022-09-15T15:51:09.303Z,3.72
2022-09-15T15:53:37.106Z,3.75
2022-09-15T15:56:05.155Z,4.95
2022-09-15T15:58:32.826Z,5.70
2022-09-15T16:01:00.574Z,8.38
2022-09-15T16:03:28.612Z,4.57
2022-09-15T16:05:59.332Z,3.47
2022-09-15T16:08:32.053Z,6.25
2022-09-15T16:11:01.758Z,7.70
2022-09-15T16:13:30.333Z,11.88
2022-09-15T16:16:01.143Z,7.72
2022-09-15T16:18:29.081Z,4.95
2022-09-15T16:20:56.807Z,9.10
2022-09-15T16:23:24.860Z,7.60
2022-09-15T16:25:57.706Z,8.65
2022-09-15T16:28:25.449Z,9.30
2022-09-15T16:30:53.303Z,7.75
2022-09-15T16:33:21.195Z,7.35
2022-09-15T16:35:51.409Z,8.18
2022-09-15T16:38:20.223Z,5.95
2022-09-15T16:40:48.065Z,6.13
2022-09-15T16:43:19.698Z,6.35
2022-09-15T16:45:47.684Z,9.55
2022-09-15T16:48:15.915Z,8.18
2022-09-15T16:53:32.665Z,7.95
2022-09-15T16:56:00.533Z,10.57
2022-09-15T16:58:29.663Z,7.40
2022-09-15T17:00:57.833Z,5.97
2022-09-15T17:03:27.612Z,6.03
2022-09-15T17:05:57.417Z,7.40
2022-09-15T17:08:27.174Z,7.82
2022-09-15T17:10:56.821Z,8.38
2022-09-15T17:13:29.555Z,10.40
2022-09-15T17:16:00.215Z,4.65
2022-09-15T17:18:28.811Z,6.95
2022-09-15T17:20:56.775Z,5.10
2022-09-15T17:23:26.167Z,6.85
2022-09-15T17:25:57.417Z,5.20
2022-09-15T17:28:27.476Z,6.18
2022-09-15T17:31:00.036Z,3.83
2022-09-15T17:33:28.696Z,4.82
2022-09-15T17:35:56.878Z,5.22
2022-09-15T17:38:25.151Z,5.18
2022-09-15T17:40:55.124Z,3.70
2022-09-15T17:43:25.180Z,10.77
2022-09-15T17:45:53.111Z,4.68
2022-09-15T17:48:22.314Z,8.10
2022-09-15T17:50:50.539Z,5.07
2022-09-15T17:53:21.243Z,4.82
2022-09-15T17:55:49.251Z,7.47
2022-09-15T17:58:17.843Z,4.68
2022-09-15T18:00:46.267Z,2.95
2022-09-15T18:03:20.415Z,5.78
2022-09-15T18:05:50.241Z,7.05
2022-09-15T18:08:18.216Z,4.63
2022-09-15T18:10:46.047Z,5.90
2022-09-15T18:13:16.398Z,7.75
2022-09-15T18:15:44.545Z,7.30
2022-09-15T18:18:14.919Z,6.40
2022-09-15T18:20:43.301Z,7.75
2022-09-15T18:23:15.437Z,4.10
2022-09-15T18:28:11.199Z,3.53
2022-09-15T18:30:41.696Z,7.70
2022-09-15T18:33:14.342Z,6.47
2022-09-15T18:35:43.637Z,4.93
2022-09-15T18:38:12.251Z,5.15
2022-09-15T18:40:45.359Z,6.97
2022-09-15T18:43:13.083Z,6.32
2022-09-15T18:45:42.406Z,6.88
2022-09-15T18:48:12.836Z,5.85
2022-09-15T18:50:41.506Z,5.80
2022-09-15T18:53:09.383Z,5.93
2022-09-15T18:55:37.347Z,7.10
2022-09-15T18:58:06.682Z,5.68
2022-09-15T19:00:34.527Z,5.35
2022-09-15T19:03:05.254Z,6.97
2022-09-15T19:05:33.671Z,5.10
2022-09-15T19:08:03.944Z,7.60
2022-09-15T19:10:32.437Z,6.03
2022-09-15T19:13:00.146Z,6.70
2022-09-15T19:15:31.241Z,5.75
2022-09-15T19:17:59.031Z,8.33
2022-09-15T19:20:26.755Z,4.40
2022-09-15T19:22:54.443Z,6.85
2022-09-15T19:25:22.754Z,6.22
2022-09-15T19:27:50.458Z,6.97
2022-09-15T19:30:18.393Z,6.57
2022-09-15T19:32:47.493Z,7.18
2022-09-15T19:35:15.192Z,8.77
2022-09-15T19:37:43.817Z,9.13
2022-09-15T19:40:14.877Z,6.38
2022-09-15T19:42:44.416Z,6.20
2022-09-15T19:45:13.567Z,7.85
2022-09-15T19:47:41.984Z,6.95
2022-09-15T19:50:12.998Z,10.85
2022-09-15T19:52:40.817Z,9.10
2022-09-15T19:55:09.759Z,9.02
2022-09-15T19:57:40.273Z,10.43
2022-09-15T20:00:10.255Z,10.80
2022-09-15T20:02:38.057Z,9.50
2022-09-15T20:05:06.936Z,13.52
2022-09-15T20:07:36.059Z,10.52
2022-09-15T20:10:04.364Z,11.23
2022-09-15T20:12:32.214Z,11.68
2022-09-15T20:15:00.005Z,12.13
2022-09-15T20:17:27.863Z,15.00
2022-09-15T20:19:55.609Z,9.13
2022-09-15T20:22:23.927Z,10.52
2022-09-15T20:24:52.980Z,9.20
2022-09-15T20:27:20.753Z,7.25
2022-09-15T20:29:48.408Z,5.72
2022-09-15T20:32:16.167Z,8.68
2022-09-15T20:34:43.898Z,7.72
2022-09-15T20:37:11.765Z,11.18
2022-09-15T20:39:39.661Z,8.55
2022-09-15T20:42:08.892Z,10.40
2022-09-15T20:44:36.867Z,7.95
2022-09-15T20:47:04.687Z,14.93
2022-09-15T20:49:32.394Z,9.18
2022-09-15T20:52:00.072Z,11.07
2022-09-15T20:54:27.947Z,6.38
2022-09-15T20:56:55.903Z,10.40
2022-09-15T20:59:25.956Z,9.85
2022-09-15T21:01:53.646Z,42.08
2022-09-15T21:04:22.093Z,14.55
2022-09-15T21:06:50.608Z,12.13
2022-09-15T21:09:18.474Z,6.65
2022-09-15T21:11:49.089Z,8.93
2022-09-15T21:14:19.220Z,5.97
2022-09-15T21:16:48.521Z,9.75
2022-09-15T21:19:16.239Z,8.95
2022-09-15T21:21:44.065Z,8.52
2022-09-15T21:24:11.803Z,8.15
2022-09-15T21:27:01.950Z,9.25
2022-09-15T21:29:30.090Z,8.95
2022-09-15T21:31:59.218Z,12.57
2022-09-15T21:34:26.982Z,7.28
2022-09-15T21:36:54.649Z,8.48
2022-09-15T21:39:22.471Z,9.27
2022-09-15T21:41:50.685Z,12.73
2022-09-15T21:44:18.692Z,7.72
2022-09-15T21:46:47.221Z,7.07
2022-09-15T21:49:18.084Z,7.07
2022-09-15T21:51:45.848Z,9.50
2022-09-15T21:54:13.646Z,5.85
2022-09-15T21:56:41.563Z,8.15
2022-09-15T21:59:09.359Z,10.20
2022-09-15T22:01:37.452Z,33.33
2022-09-15T22:04:07.363Z,16.15
2022-09-15T22:06:40.184Z,10.82
2022-09-15T22:09:09.509Z,6.72
2022-09-15T22:11:37.895Z,7.38
2022-09-15T22:14:08.215Z,9.30
2022-09-15T22:16:37.344Z,7.20
2022-09-15T22:19:05.345Z,11.80
2022-09-15T22:21:36.641Z,10.20
2022-09-15T22:24:06.963Z,14.05
2022-09-15T22:26:37.849Z,20.05
2022-09-15T22:29:06.545Z,36.05
2022-09-15T22:31:35.174Z,10.13
2022-09-15T22:34:03.385Z,10.68
2022-09-15T22:36:32.265Z,11.23
2022-09-15T22:39:04.355Z,8.18
2022-09-15T22:41:35.088Z,9.20
2022-09-15T22:44:03.471Z,8.13
2022-09-15T22:46:31.575Z,13.55
2022-09-15T22:48:59.583Z,12.50
2022-09-15T22:51:27.356Z,12.73
2022-09-15T22:53:57.060Z,13.25
2022-09-15T22:56:26.388Z,24.55
2022-09-15T22:58:56.637Z,17.15
2022-09-15T23:01:25.911Z,13.32
2022-09-15T23:03:55.714Z,9.95
2022-09-15T23:06:25.183Z,11.95
2022-09-15T23:08:53.523Z,12.43
2022-09-15T23:11:22.154Z,15.35
2022-09-15T23:13:50.062Z,9.85
2022-09-15T23:16:19.455Z,12.90
2022-09-15T23:18:48.263Z,11.30
2022-09-15T23:21:16.481Z,17.75
2022-09-15T23:23:48.878Z,16.73
2022-09-15T23:26:18.391Z,18.73
2022-09-15T23:28:46.190Z,22.80
2022-09-15T23:31:15.014Z,21.67
2022-09-15T23:33:44.387Z,14.38
2022-09-15T23:36:14.737Z,18.27
2022-09-15T23:38:44.338Z,12.90
2022-09-15T23:41:13.333Z,13.07
2022-09-15T23:43:41.208Z,13.20
2022-09-15T23:46:09.422Z,12.25
2022-09-15T23:48:37.483Z,14.43
2022-09-15T23:51:07.467Z,16.25
2022-09-15T23:53:35.365Z,18.67
2022-09-15T23:56:03.434Z,12.75
2022-09-15T23:58:31.382Z,13.02
